createdAt,value
2017-11-22T00:00:57.634Z,11.38
2017-11-22T00:01:59.016Z,11.50
2017-11-22T00:03:00.417Z,11.52
2017-11-22T00:04:01.825Z,11.56
2017-11-22T00:05:03.245Z,11.64
2017-11-22T00:06:04.655Z,11.65
2017-11-22T00:07:06.093Z,11.62
2017-11-22T00:08:07.511Z,11.59
2017-11-22T00:09:08.919Z,11.71
2017-11-22T00:10:10.338Z,11.56
2017-11-22T00:11:11.757Z,11.53
2017-11-22T00:12:13.173Z,11.49
2017-11-22T00:13:14.577Z,11.49
2017-11-22T00:14:15.989Z,11.64
2017-11-22T00:15:17.409Z,11.62
2017-11-22T00:16:18.841Z,11.50
2017-11-22T00:17:20.227Z,11.64
2017-11-22T00:18:21.635Z,11.59
2017-11-22T00:19:23.043Z,11.54
2017-11-22T00:20:24.463Z,11.59
2017-11-22T00:21:25.878Z,11.56
2017-11-22T00:22:27.287Z,11.49
2017-11-22T00:23:28.704Z,11.43
2017-11-22T00:24:30.103Z,11.50
2017-11-22T00:25:31.522Z,11.52
2017-11-22T00:26:32.931Z,11.50
2017-11-22T00:27:34.345Z,11.64
2017-11-22T00:28:35.752Z,11.50
2017-11-22T00:29:37.177Z,11.61
2017-11-22T00:30:38.595Z,11.70
2017-11-22T00:31:40.045Z,11.61
2017-11-22T00:32:41.446Z,11.56
2017-11-22T00:33:42.859Z,11.61
2017-11-22T00:34:44.269Z,11.54
2017-11-22T00:35:45.675Z,11.50
2017-11-22T00:36:47.091Z,11.59
2017-11-22T00:37:48.505Z,11.62
2017-11-22T00:38:49.924Z,11.64
2017-11-22T00:39:51.334Z,11.54
2017-11-22T00:40:52.746Z,11.53
2017-11-22T00:41:54.156Z,11.62
2017-11-22T00:42:55.570Z,11.54
2017-11-22T00:43:56.989Z,11.57
2017-11-22T00:44:58.404Z,11.70
2017-11-22T00:45:59.831Z,11.77
2017-11-22T00:47:01.240Z,11.75
2017-11-22T00:48:02.661Z,11.74
2017-11-22T00:49:04.070Z,11.72
2017-11-22T00:50:05.492Z,11.65
2017-11-22T00:51:06.901Z,11.62
2017-11-22T00:52:08.310Z,11.57
2017-11-22T00:53:09.726Z,11.68
2017-11-22T00:54:11.135Z,11.50
2017-11-22T00:55:12.557Z,11.57
2017-11-22T00:56:13.969Z,11.70
2017-11-22T00:57:15.377Z,11.65
2017-11-22T00:58:16.780Z,11.65
2017-11-22T00:59:18.199Z,11.68
2017-11-22T01:00:19.608Z,11.61
2017-11-22T01:01:21.024Z,11.67
2017-11-22T01:02:22.437Z,11.57
2017-11-22T01:03:23.849Z,11.65
2017-11-22T01:04:25.262Z,11.47
2017-11-22T01:05:26.668Z,11.67
2017-11-22T01:06:28.086Z,11.65
2017-11-22T01:07:29.498Z,11.59
2017-11-22T01:08:30.911Z,11.64
2017-11-22T01:09:32.314Z,11.59
2017-11-22T01:10:33.724Z,11.67
2017-11-22T01:11:35.152Z,11.74
2017-11-22T01:12:36.549Z,11.65
2017-11-22T01:13:37.966Z,11.78
2017-11-22T01:14:39.375Z,11.62
2017-11-22T01:15:40.795Z,11.61
2017-11-22T01:16:42.207Z,11.61
2017-11-22T01:17:44.167Z,11.78
2017-11-22T01:18:45.582Z,11.67
2017-11-22T01:19:47.003Z,11.80
2017-11-22T01:20:48.416Z,11.65
2017-11-22T01:21:49.823Z,11.61
2017-11-22T01:22:51.242Z,11.56
2017-11-22T01:23:52.647Z,11.61
2017-11-22T01:24:54.052Z,11.62
2017-11-22T01:25:55.468Z,11.59
2017-11-22T01:26:56.877Z,11.61
2017-11-22T01:27:58.292Z,11.70
2017-11-22T01:28:59.696Z,11.77
2017-11-22T01:30:01.157Z,11.71
2017-11-22T01:31:02.571Z,11.75
2017-11-22T01:32:03.999Z,11.68
2017-11-22T01:33:05.418Z,11.78
2017-11-22T01:34:06.827Z,11.83
2017-11-22T01:35:08.236Z,11.75
2017-11-22T01:36:09.650Z,11.77
2017-11-22T01:37:11.059Z,11.82
2017-11-22T01:38:12.467Z,11.67
2017-11-22T01:39:13.876Z,11.72
2017-11-22T01:40:15.292Z,11.80
2017-11-22T01:41:16.700Z,11.85
2017-11-22T01:42:18.106Z,11.70
2017-11-22T01:43:19.515Z,11.82
2017-11-22T01:44:20.922Z,11.80
2017-11-22T01:45:22.340Z,11.77
2017-11-22T01:46:23.747Z,11.82
2017-11-22T01:47:25.158Z,11.97
2017-11-22T01:48:26.576Z,11.75
2017-11-22T01:49:27.979Z,11.77
2017-11-22T01:50:29.391Z,11.77
2017-11-22T01:51:30.808Z,11.87
2017-11-22T01:52:32.213Z,11.82
2017-11-22T01:53:33.621Z,11.86
2017-11-22T01:54:35.040Z,11.71
2017-11-22T01:55:36.454Z,11.80
2017-11-22T01:56:37.869Z,11.80
2017-11-22T01:57:39.288Z,11.72
2017-11-22T01:58:40.695Z,11.75
2017-11-22T01:59:42.106Z,11.64
2017-11-22T02:00:43.588Z,11.65
2017-11-22T02:01:45.002Z,11.77
2017-11-22T02:02:46.423Z,11.74
2017-11-22T02:03:47.824Z,11.65
2017-11-22T02:04:49.239Z,11.64
2017-11-22T02:05:50.666Z,11.72
2017-11-22T02:06:52.098Z,11.77
2017-11-22T02:07:53.617Z,11.85
2017-11-22T02:08:55.024Z,11.74
2017-11-22T02:09:56.440Z,11.75
2017-11-22T02:10:57.844Z,11.74
2017-11-22T02:11:59.259Z,11.70
2017-11-22T02:13:00.672Z,11.80
2017-11-22T02:14:02.074Z,11.65
2017-11-22T02:15:03.491Z,11.85
2017-11-22T02:16:04.908Z,11.68
2017-11-22T02:17:06.314Z,11.80
2017-11-22T02:18:07.729Z,11.74
2017-11-22T02:19:09.136Z,11.70
2017-11-22T02:20:10.551Z,11.68
2017-11-22T02:21:11.961Z,11.75
2017-11-22T02:22:13.368Z,11.72
2017-11-22T02:23:14.781Z,11.62
2017-11-22T02:24:16.197Z,11.62
2017-11-22T02:25:17.607Z,11.70
2017-11-22T02:26:19.023Z,11.64
2017-11-22T02:27:20.439Z,11.71
2017-11-22T02:28:21.842Z,11.70
2017-11-22T02:29:23.244Z,11.77
2017-11-22T02:30:24.666Z,11.77
2017-11-22T02:31:26.071Z,11.74
2017-11-22T02:32:27.550Z,11.70
2017-11-22T02:33:28.961Z,11.78
2017-11-22T02:34:30.369Z,11.72
2017-11-22T02:35:31.779Z,11.96
2017-11-22T02:36:33.189Z,11.96
2017-11-22T02:37:34.616Z,11.93
2017-11-22T02:38:36.029Z,11.90
2017-11-22T02:39:37.446Z,11.89
2017-11-22T02:40:38.858Z,11.85
2017-11-22T02:41:40.268Z,11.93
2017-11-22T02:42:41.679Z,11.94
2017-11-22T02:43:43.087Z,11.97
2017-11-22T02:44:44.497Z,11.93
2017-11-22T02:45:45.921Z,11.89
2017-11-22T02:46:47.330Z,11.93
2017-11-22T02:47:48.741Z,11.89
2017-11-22T02:48:50.151Z,11.90
2017-11-22T02:49:51.557Z,11.78
2017-11-22T02:50:53.026Z,11.86
2017-11-22T02:51:54.446Z,11.85
2017-11-22T02:52:55.853Z,11.78
2017-11-22T02:53:57.263Z,11.85
2017-11-22T02:54:58.674Z,11.96
2017-11-22T02:56:00.088Z,11.93
2017-11-22T02:57:01.500Z,11.93
2017-11-22T02:58:02.907Z,11.83
2017-11-22T02:59:04.333Z,11.75
2017-11-22T03:00:05.737Z,11.94
2017-11-22T03:01:07.146Z,11.97
2017-11-22T03:02:08.556Z,11.90
2017-11-22T03:03:10.004Z,11.86
2017-11-22T03:04:11.413Z,11.82
2017-11-22T03:05:12.823Z,11.83
2017-11-22T03:06:14.250Z,11.93
2017-11-22T03:07:15.637Z,11.90
2017-11-22T03:08:17.056Z,11.90
2017-11-22T03:09:18.470Z,11.85
2017-11-22T03:10:19.880Z,11.89
2017-11-22T03:11:21.308Z,11.89
2017-11-22T03:12:22.711Z,11.93
2017-11-22T03:13:24.119Z,11.99
2017-11-22T03:14:25.527Z,11.87
2017-11-22T03:15:26.945Z,12.01
2017-11-22T03:16:28.360Z,11.93
2017-11-22T03:17:29.768Z,12.04
2017-11-22T03:18:31.179Z,12.04
2017-11-22T03:19:32.589Z,11.96
2017-11-22T03:20:33.994Z,11.97
2017-11-22T03:21:35.407Z,11.99
2017-11-22T03:22:36.822Z,11.97
2017-11-22T03:23:38.228Z,11.94
2017-11-22T03:24:39.648Z,12.02
2017-11-22T03:25:41.070Z,11.96
2017-11-22T03:26:42.489Z,11.97
2017-11-22T03:27:43.894Z,12.06
2017-11-22T03:28:45.306Z,12.05
2017-11-22T03:29:46.713Z,12.08
2017-11-22T03:30:48.133Z,12.06
2017-11-22T03:31:49.536Z,12.08
2017-11-22T03:32:50.945Z,12.09
2017-11-22T03:33:52.372Z,12.12
2017-11-22T03:34:53.788Z,12.09
2017-11-22T03:35:55.195Z,12.11
2017-11-22T03:36:56.626Z,12.12
2017-11-22T03:37:58.027Z,12.13
2017-11-22T03:38:59.440Z,12.09
2017-11-22T03:40:00.808Z,12.13
2017-11-22T03:41:02.217Z,12.09
2017-11-22T03:42:03.630Z,12.13
2017-11-22T03:43:05.042Z,12.09
2017-11-22T03:44:06.456Z,12.26
2017-11-22T03:45:07.871Z,12.21
2017-11-22T03:46:09.353Z,12.20
2017-11-22T03:47:10.766Z,12.29
2017-11-22T03:48:12.180Z,12.26
2017-11-22T03:49:13.586Z,12.23
2017-11-22T03:50:15.001Z,12.21
2017-11-22T03:51:16.408Z,12.11
2017-11-22T03:52:17.827Z,12.04
2017-11-22T03:53:19.233Z,12.21
2017-11-22T03:54:20.662Z,12.12
2017-11-22T03:55:22.067Z,12.11
2017-11-22T03:56:23.481Z,12.16
2017-11-22T03:57:24.890Z,12.19
2017-11-22T03:58:26.298Z,12.19
2017-11-22T03:59:27.708Z,12.11
2017-11-22T04:00:29.126Z,12.24
2017-11-22T04:01:30.540Z,12.12
2017-11-22T04:02:31.952Z,12.13
2017-11-22T04:03:33.371Z,12.23
2017-11-22T04:04:34.786Z,12.24
2017-11-22T04:05:36.200Z,12.09
2017-11-22T04:06:37.612Z,12.11
2017-11-22T04:07:39.025Z,12.11
2017-11-22T04:08:40.435Z,12.12
2017-11-22T04:09:41.848Z,12.23
2017-11-22T04:10:43.266Z,12.34
2017-11-22T04:11:44.674Z,12.34
2017-11-22T04:12:46.083Z,12.31
2017-11-22T04:13:47.489Z,12.16
2017-11-22T04:14:48.902Z,12.21
2017-11-22T04:15:50.317Z,12.31
2017-11-22T04:16:51.723Z,12.15
2017-11-22T04:17:53.154Z,12.21
2017-11-22T04:18:54.561Z,12.23
2017-11-22T04:19:55.970Z,12.19
2017-11-22T04:20:57.377Z,12.15
2017-11-22T04:21:58.785Z,12.24
2017-11-22T04:23:00.201Z,12.21
2017-11-22T04:24:01.607Z,12.34
2017-11-22T04:25:03.017Z,12.24
2017-11-22T04:26:04.432Z,12.24
2017-11-22T04:27:05.843Z,12.24
2017-11-22T04:28:07.252Z,12.34
2017-11-22T04:29:08.658Z,12.56
2017-11-22T04:30:10.082Z,12.44
2017-11-22T04:31:11.495Z,12.46
2017-11-22T04:32:12.917Z,12.49
2017-11-22T04:33:14.315Z,12.38
2017-11-22T04:34:15.735Z,12.41
2017-11-22T04:35:17.145Z,12.31
2017-11-22T04:36:18.560Z,12.46
2017-11-22T04:37:19.974Z,12.31
2017-11-22T04:38:21.386Z,12.27
2017-11-22T04:39:22.802Z,12.24
2017-11-22T04:40:24.214Z,12.27
2017-11-22T04:41:25.634Z,12.29
2017-11-22T04:42:27.037Z,12.44
2017-11-22T04:43:28.447Z,12.34
2017-11-22T04:44:29.865Z,12.33
2017-11-22T04:45:31.285Z,12.46
2017-11-22T04:46:32.700Z,12.56
2017-11-22T04:47:34.120Z,12.66
2017-11-22T04:48:35.539Z,12.74
2017-11-22T04:49:36.948Z,12.74
2017-11-22T04:50:38.362Z,12.69
2017-11-22T04:51:39.777Z,12.59
2017-11-22T04:52:41.192Z,12.66
2017-11-22T04:53:42.605Z,12.93
2017-11-22T04:54:44.017Z,12.82
2017-11-22T04:55:45.428Z,12.92
2017-11-22T04:56:46.843Z,12.93
2017-11-22T04:57:48.252Z,12.93
2017-11-22T04:58:49.669Z,12.88
2017-11-22T04:59:51.078Z,12.96
2017-11-22T05:00:52.483Z,12.89
2017-11-22T05:01:53.892Z,12.96
2017-11-22T05:02:55.316Z,12.93
2017-11-22T05:03:56.737Z,12.93
2017-11-22T05:04:58.140Z,12.85
2017-11-22T05:05:59.566Z,12.77
2017-11-22T05:07:00.966Z,12.74
2017-11-22T05:08:02.379Z,12.66
2017-11-22T05:09:03.787Z,12.71
2017-11-22T05:10:05.197Z,12.66
2017-11-22T05:11:06.609Z,12.67
2017-11-22T05:12:08.026Z,12.79
2017-11-22T05:13:09.439Z,12.97
2017-11-22T05:14:10.859Z,13.00
2017-11-22T05:15:12.264Z,13.02
2017-11-22T05:16:13.683Z,13.00
2017-11-22T05:17:15.092Z,13.07
2017-11-22T05:18:16.512Z,12.99
2017-11-22T05:19:17.927Z,12.78
2017-11-22T05:20:19.334Z,12.78
2017-11-22T05:21:20.753Z,12.69
2017-11-22T05:22:22.164Z,12.63
2017-11-22T05:23:23.606Z,12.60
2017-11-22T05:24:25.024Z,12.49
2017-11-22T05:25:26.423Z,12.41
2017-11-22T05:26:27.845Z,12.45
2017-11-22T05:27:29.268Z,12.56
2017-11-22T05:28:30.668Z,12.42
2017-11-22T05:29:32.083Z,12.37
2017-11-22T05:30:33.501Z,12.42
2017-11-22T05:31:34.911Z,12.45
2017-11-22T05:32:36.317Z,12.46
2017-11-22T05:33:37.736Z,12.45
2017-11-22T05:34:39.141Z,12.51
2017-11-22T05:35:40.558Z,12.45
2017-11-22T05:36:41.963Z,12.31
2017-11-22T05:37:43.381Z,12.39
2017-11-22T05:38:44.790Z,12.37
2017-11-22T05:39:46.193Z,12.37
2017-11-22T05:40:47.605Z,12.33
2017-11-22T05:41:49.020Z,12.20
2017-11-22T05:42:50.440Z,12.33
2017-11-22T05:43:51.856Z,12.31
2017-11-22T05:44:53.265Z,12.31
2017-11-22T05:45:54.681Z,12.48
2017-11-22T05:46:56.095Z,12.31
2017-11-22T05:47:57.516Z,12.48
2017-11-22T05:48:59.023Z,12.38
2017-11-22T05:50:00.438Z,12.42
2017-11-22T05:51:01.857Z,12.33
2017-11-22T05:52:03.265Z,12.23
2017-11-22T05:53:04.677Z,12.31
2017-11-22T05:54:06.097Z,12.19
2017-11-22T05:55:07.514Z,12.37
2017-11-22T05:56:09.016Z,12.33
2017-11-22T05:57:10.419Z,12.26
2017-11-22T05:58:11.839Z,12.31
2017-11-22T05:59:13.252Z,12.48
2017-11-22T06:00:14.660Z,12.30
2017-11-22T06:01:16.075Z,12.45
2017-11-22T06:02:17.491Z,12.48
2017-11-22T06:03:18.902Z,12.37
2017-11-22T06:04:20.319Z,12.31
2017-11-22T06:05:21.735Z,12.31
2017-11-22T06:06:23.157Z,12.29
2017-11-22T06:07:24.567Z,12.33
2017-11-22T06:08:25.974Z,12.34
2017-11-22T06:09:27.388Z,12.34
2017-11-22T06:10:28.811Z,12.46
2017-11-22T06:11:30.220Z,12.37
2017-11-22T06:12:31.634Z,12.31
2017-11-22T06:13:33.053Z,12.46
2017-11-22T06:14:34.475Z,12.46
2017-11-22T06:15:35.874Z,12.33
2017-11-22T06:16:37.277Z,12.29
2017-11-22T06:17:38.688Z,12.34
2017-11-22T06:18:40.098Z,12.48
2017-11-22T06:19:41.506Z,12.34
2017-11-22T06:20:42.950Z,12.38
2017-11-22T06:21:44.357Z,12.23
2017-11-22T06:22:45.763Z,12.23
2017-11-22T06:23:47.175Z,12.29
2017-11-22T06:24:48.590Z,12.23
2017-11-22T06:25:49.994Z,12.27
2017-11-22T06:26:51.421Z,12.12
2017-11-22T06:27:52.834Z,12.12
2017-11-22T06:28:54.240Z,12.19
2017-11-22T06:29:55.650Z,12.21
2017-11-22T06:30:57.068Z,12.09
2017-11-22T06:31:58.481Z,12.16
2017-11-22T06:32:59.904Z,12.16
2017-11-22T06:34:01.316Z,12.19
2017-11-22T06:35:02.727Z,12.23
2017-11-22T06:36:04.136Z,12.09
2017-11-22T06:37:05.551Z,12.06
2017-11-22T06:38:06.957Z,11.99
2017-11-22T06:39:08.373Z,12.09
2017-11-22T06:40:09.789Z,12.06
2017-11-22T06:41:11.202Z,12.05
2017-11-22T06:42:12.613Z,12.27
2017-11-22T06:43:14.024Z,12.26
2017-11-22T06:44:15.426Z,12.11
2017-11-22T06:45:16.841Z,12.11
2017-11-22T06:46:18.271Z,12.01
2017-11-22T06:47:19.688Z,11.90
2017-11-22T06:48:21.107Z,12.02
2017-11-22T06:49:22.513Z,12.12
2017-11-22T06:50:23.928Z,12.08
2017-11-22T06:51:25.347Z,12.06
2017-11-22T06:52:26.878Z,12.06
2017-11-22T06:53:28.292Z,12.05
2017-11-22T06:54:29.694Z,11.97
2017-11-22T06:55:31.109Z,12.06
2017-11-22T06:56:32.521Z,12.11
2017-11-22T06:57:33.933Z,12.13
2017-11-22T06:58:35.339Z,12.15
2017-11-22T06:59:37.521Z,12.05
2017-11-22T07:00:38.927Z,12.12
2017-11-22T07:01:40.330Z,12.21
2017-11-22T07:02:41.750Z,12.23
2017-11-22T07:03:43.201Z,12.13
2017-11-22T07:04:44.614Z,12.20
2017-11-22T07:05:46.034Z,12.24
2017-11-22T07:06:47.445Z,12.23
2017-11-22T07:07:48.863Z,12.23
2017-11-22T07:08:50.272Z,12.23
2017-11-22T07:09:52.430Z,12.21
2017-11-22T07:10:53.837Z,12.24
2017-11-22T07:11:55.239Z,12.38
2017-11-22T07:12:56.658Z,12.33
2017-11-22T07:13:58.072Z,12.23
2017-11-22T07:14:59.499Z,12.31
2017-11-22T07:16:00.915Z,12.19
2017-11-22T07:17:02.321Z,12.38
2017-11-22T07:18:03.728Z,12.39
2017-11-22T07:19:05.142Z,12.20
2017-11-22T07:20:06.549Z,12.33
2017-11-22T07:21:07.961Z,12.31
2017-11-22T07:22:09.368Z,12.24
2017-11-22T07:23:10.780Z,12.37
2017-11-22T07:24:12.193Z,12.42
2017-11-22T07:25:13.619Z,12.37
2017-11-22T07:26:15.029Z,12.31
2017-11-22T07:27:16.444Z,12.31
2017-11-22T07:28:17.857Z,12.37
2017-11-22T07:29:19.268Z,12.48
2017-11-22T07:30:20.681Z,12.31
2017-11-22T07:31:22.091Z,12.31
2017-11-22T07:32:23.504Z,12.33
2017-11-22T07:33:24.927Z,12.34
2017-11-22T07:34:26.347Z,12.41
2017-11-22T07:35:27.760Z,12.52
2017-11-22T07:36:29.173Z,12.51
2017-11-22T07:37:30.592Z,12.56
2017-11-22T07:38:31.998Z,12.60
2017-11-22T07:39:33.406Z,12.48
2017-11-22T07:40:34.820Z,12.45
2017-11-22T07:41:36.238Z,12.45
2017-11-22T07:42:37.652Z,12.34
2017-11-22T07:43:39.066Z,12.49
2017-11-22T07:44:40.474Z,12.59
2017-11-22T07:45:41.893Z,12.56
2017-11-22T07:46:43.298Z,12.56
2017-11-22T07:47:45.547Z,12.63
2017-11-22T07:48:46.960Z,12.62
2017-11-22T07:49:48.375Z,12.54
2017-11-22T07:50:49.786Z,12.59
2017-11-22T07:51:51.202Z,12.33
2017-11-22T07:52:52.610Z,12.38
2017-11-22T07:53:54.019Z,12.56
2017-11-22T07:54:55.437Z,12.63
2017-11-22T07:55:56.853Z,12.71
2017-11-22T07:56:58.274Z,12.48
2017-11-22T07:57:59.682Z,12.56
2017-11-22T07:59:01.102Z,12.54
2017-11-22T08:00:02.508Z,12.70
2017-11-22T08:01:03.928Z,12.69
2017-11-22T08:02:05.338Z,12.59
2017-11-22T08:03:06.838Z,12.49
2017-11-22T08:04:08.255Z,12.62
2017-11-22T08:05:09.671Z,12.60
2017-11-22T08:06:11.086Z,12.57
2017-11-22T08:07:12.497Z,12.51
2017-11-22T08:08:13.902Z,12.63
2017-11-22T08:09:15.307Z,12.71
2017-11-22T08:10:16.730Z,12.46
2017-11-22T08:11:18.142Z,12.56
2017-11-22T08:12:19.562Z,12.69
2017-11-22T08:13:20.977Z,12.67
2017-11-22T08:14:22.383Z,12.74
2017-11-22T08:15:23.798Z,12.78
2017-11-22T08:16:25.217Z,12.79
2017-11-22T08:17:26.641Z,12.67
2017-11-22T08:18:28.058Z,12.77
2017-11-22T08:19:29.471Z,12.64
2017-11-22T08:20:30.880Z,12.59
2017-11-22T08:21:32.301Z,12.67
2017-11-22T08:22:33.761Z,12.51
2017-11-22T08:23:35.188Z,12.66
2017-11-22T08:24:37.404Z,12.74
2017-11-22T08:25:38.824Z,12.75
2017-11-22T08:26:40.231Z,12.78
2017-11-22T08:27:41.644Z,12.78
2017-11-22T08:28:43.052Z,12.66
2017-11-22T08:29:44.470Z,12.71
2017-11-22T08:30:45.885Z,12.84
2017-11-22T08:31:47.291Z,12.67
2017-11-22T08:32:48.707Z,12.69
2017-11-22T08:33:50.179Z,12.84
2017-11-22T08:34:51.608Z,12.82
2017-11-22T08:35:53.022Z,12.78
2017-11-22T08:36:54.436Z,12.79
2017-11-22T08:37:55.859Z,12.69
2017-11-22T08:38:57.267Z,12.84
2017-11-22T08:39:58.685Z,12.75
2017-11-22T08:41:00.099Z,12.63
2017-11-22T08:42:01.514Z,12.70
2017-11-22T08:43:02.931Z,12.81
2017-11-22T08:44:04.350Z,12.77
2017-11-22T08:45:05.764Z,12.85
2017-11-22T08:46:07.166Z,12.82
2017-11-22T08:47:08.584Z,12.74
2017-11-22T08:48:09.991Z,12.81
2017-11-22T08:49:11.413Z,12.87
2017-11-22T08:50:12.816Z,13.04
2017-11-22T08:51:14.233Z,12.92
2017-11-22T08:52:15.643Z,12.92
2017-11-22T08:53:17.048Z,12.93
2017-11-22T08:54:18.478Z,12.93
2017-11-22T08:55:19.898Z,12.93
2017-11-22T08:56:21.330Z,12.95
2017-11-22T08:57:22.740Z,12.87
2017-11-22T08:58:24.160Z,12.93
2017-11-22T08:59:25.577Z,12.96
2017-11-22T09:00:27.019Z,12.85
2017-11-22T09:01:28.432Z,12.93
2017-11-22T09:02:29.847Z,12.96
2017-11-22T09:03:31.251Z,12.99
2017-11-22T09:04:32.676Z,13.02
2017-11-22T09:05:34.085Z,13.12
2017-11-22T09:06:35.495Z,13.07
2017-11-22T09:07:36.923Z,13.07
2017-11-22T09:08:38.393Z,13.12
2017-11-22T09:09:39.759Z,13.00
2017-11-22T09:10:41.172Z,13.03
2017-11-22T09:11:42.591Z,13.11
2017-11-22T09:12:44.001Z,13.02
2017-11-22T09:13:45.414Z,13.02
2017-11-22T09:14:46.825Z,13.11
2017-11-22T09:15:48.249Z,13.15
2017-11-22T09:16:49.670Z,13.03
2017-11-22T09:17:51.180Z,12.96
2017-11-22T09:18:52.592Z,12.97
2017-11-22T09:19:54.011Z,13.02
2017-11-22T09:20:55.426Z,13.06
2017-11-22T09:21:56.841Z,13.11
2017-11-22T09:22:58.253Z,13.14
2017-11-22T09:23:59.664Z,13.18
2017-11-22T09:25:01.073Z,13.24
2017-11-22T09:26:02.489Z,13.14
2017-11-22T09:27:03.916Z,13.14
2017-11-22T09:28:05.325Z,13.07
2017-11-22T09:29:06.750Z,13.00
2017-11-22T09:30:08.164Z,13.12
2017-11-22T09:31:09.578Z,13.11
2017-11-22T09:32:11.006Z,12.99
2017-11-22T09:33:12.420Z,13.06
2017-11-22T09:34:13.829Z,13.07
2017-11-22T09:35:15.244Z,13.12
2017-11-22T09:36:16.671Z,13.12
2017-11-22T09:37:18.082Z,12.97
2017-11-22T09:38:19.485Z,13.03
2017-11-22T09:39:20.902Z,12.89
2017-11-22T09:40:22.320Z,12.96
2017-11-22T09:41:23.730Z,12.97
2017-11-22T09:42:25.149Z,13.03
2017-11-22T09:43:26.569Z,12.99
2017-11-22T09:44:27.992Z,12.97
2017-11-22T09:45:29.405Z,13.00
2017-11-22T09:46:30.838Z,12.97
2017-11-22T09:47:32.258Z,12.96
2017-11-22T09:48:33.672Z,12.95
2017-11-22T09:49:35.097Z,12.93
2017-11-22T09:50:36.514Z,12.92
2017-11-22T09:51:37.950Z,12.85
2017-11-22T09:52:39.370Z,12.97
2017-11-22T09:53:40.780Z,12.95
2017-11-22T09:54:42.195Z,13.06
2017-11-22T09:55:43.624Z,13.09
2017-11-22T09:56:45.037Z,13.17
2017-11-22T09:57:46.448Z,13.20
2017-11-22T09:58:47.872Z,13.07
2017-11-22T09:59:49.286Z,13.07
2017-11-22T10:00:50.697Z,13.00
2017-11-22T10:01:52.128Z,12.96
2017-11-22T10:02:53.533Z,13.03
2017-11-22T10:03:54.951Z,13.20
2017-11-22T10:04:56.362Z,13.14
2017-11-22T10:05:57.779Z,13.30
2017-11-22T10:06:59.193Z,13.17
2017-11-22T10:08:00.607Z,13.20
2017-11-22T10:09:02.023Z,13.37
2017-11-22T10:10:03.448Z,13.40
2017-11-22T10:11:04.861Z,13.49
2017-11-22T10:12:06.289Z,13.46
2017-11-22T10:13:07.702Z,13.41
2017-11-22T10:14:09.124Z,13.40
2017-11-22T10:15:10.540Z,13.36
2017-11-22T10:16:12.893Z,13.29
2017-11-22T10:17:13.329Z,13.11
2017-11-22T10:18:14.739Z,13.17
2017-11-22T10:19:16.158Z,13.30
2017-11-22T10:20:17.584Z,13.15
2017-11-22T10:21:18.996Z,13.27
2017-11-22T10:22:20.422Z,13.40
2017-11-22T10:23:21.829Z,13.47
2017-11-22T10:24:23.253Z,13.46
2017-11-22T10:25:24.684Z,13.63
2017-11-22T10:26:26.089Z,13.59
2017-11-22T10:27:27.501Z,13.70
2017-11-22T10:28:28.917Z,13.61
2017-11-22T10:29:30.327Z,13.81
2017-11-22T10:30:31.739Z,13.74
2017-11-22T10:31:33.150Z,13.73
2017-11-22T10:32:34.576Z,13.58
2017-11-22T10:33:36.004Z,13.76
2017-11-22T10:34:37.417Z,13.69
2017-11-22T10:35:38.828Z,13.71
2017-11-22T10:36:40.247Z,13.80
2017-11-22T10:37:41.663Z,13.73
2017-11-22T10:38:43.071Z,13.70
2017-11-22T10:39:44.480Z,13.87
2017-11-22T10:40:45.900Z,13.80
2017-11-22T10:41:47.317Z,13.88
2017-11-22T10:42:48.735Z,13.94
2017-11-22T10:43:50.151Z,13.96
2017-11-22T10:44:51.565Z,13.99
2017-11-22T10:45:53.071Z,13.88
2017-11-22T10:46:54.485Z,13.70
2017-11-22T10:47:55.903Z,13.87
2017-11-22T10:48:57.316Z,13.87
2017-11-22T10:49:58.746Z,13.77
2017-11-22T10:51:00.152Z,13.69
2017-11-22T10:52:01.572Z,13.62
2017-11-22T10:53:03.131Z,13.92
2017-11-22T10:54:04.546Z,13.65
2017-11-22T10:55:05.962Z,13.76
2017-11-22T10:56:07.392Z,13.73
2017-11-22T10:57:08.810Z,13.59
2017-11-22T10:58:10.226Z,13.61
2017-11-22T10:59:11.606Z,13.76
2017-11-22T11:00:13.022Z,13.74
2017-11-22T11:01:14.436Z,13.77
2017-11-22T11:02:15.854Z,13.87
2017-11-22T11:03:17.268Z,13.69
2017-11-22T11:04:18.685Z,13.73
2017-11-22T11:05:20.102Z,13.71
2017-11-22T11:06:21.529Z,13.92
2017-11-22T11:07:22.942Z,13.61
2017-11-22T11:08:24.355Z,13.74
2017-11-22T11:09:25.761Z,13.74
2017-11-22T11:10:27.177Z,13.49
2017-11-22T11:11:28.600Z,13.71
2017-11-22T11:12:30.015Z,13.81
2017-11-22T11:13:31.428Z,13.88
2017-11-22T11:14:32.844Z,13.96
2017-11-22T11:15:34.252Z,13.94
2017-11-22T11:16:35.674Z,13.83
2017-11-22T11:17:37.085Z,13.91
2017-11-22T11:18:38.511Z,13.80
2017-11-22T11:19:39.921Z,13.73
2017-11-22T11:20:41.328Z,13.84
2017-11-22T11:21:42.743Z,13.81
2017-11-22T11:22:44.161Z,13.94
2017-11-22T11:23:45.576Z,14.02
2017-11-22T11:24:46.996Z,13.94
2017-11-22T11:25:48.410Z,14.01
2017-11-22T11:26:49.819Z,14.17
2017-11-22T11:27:51.233Z,14.14
2017-11-22T11:28:52.659Z,14.37
2017-11-22T11:29:54.064Z,14.50
2017-11-22T11:30:55.478Z,14.56
2017-11-22T11:31:56.894Z,14.37
2017-11-22T11:32:58.316Z,14.31
2017-11-22T11:33:59.740Z,14.28
2017-11-22T11:35:01.147Z,14.32
2017-11-22T11:36:02.563Z,14.44
2017-11-22T11:37:03.995Z,14.44
2017-11-22T11:38:05.399Z,14.56
2017-11-22T11:39:06.811Z,14.57
2017-11-22T11:40:08.235Z,14.65
2017-11-22T11:41:09.659Z,14.65
2017-11-22T11:42:11.071Z,14.39
2017-11-22T11:43:12.484Z,14.43
2017-11-22T11:44:13.901Z,14.35
2017-11-22T11:45:15.313Z,14.50
2017-11-22T11:46:16.731Z,14.47
2017-11-22T11:47:18.153Z,14.61
2017-11-22T11:48:19.565Z,14.56
2017-11-22T11:49:20.992Z,14.43
2017-11-22T11:50:22.408Z,14.56
2017-11-22T11:51:23.834Z,14.57
2017-11-22T11:52:25.241Z,14.60
2017-11-22T11:53:26.657Z,14.44
2017-11-22T11:54:28.072Z,14.65
2017-11-22T11:55:29.499Z,14.62
2017-11-22T11:56:30.911Z,14.62
2017-11-22T11:57:32.286Z,14.72
2017-11-22T11:58:33.699Z,14.61
2017-11-22T11:59:35.134Z,14.61
2017-11-22T12:00:36.555Z,14.67
2017-11-22T12:01:37.970Z,14.60
2017-11-22T12:02:39.383Z,14.57
2017-11-22T12:03:40.795Z,14.69
2017-11-22T12:04:42.230Z,14.95
2017-11-22T12:05:43.650Z,14.84
2017-11-22T12:06:45.073Z,14.88
2017-11-22T12:07:46.495Z,14.71
2017-11-22T12:08:47.927Z,14.90
2017-11-22T12:09:49.364Z,14.94
2017-11-22T12:10:50.757Z,14.95
2017-11-22T12:11:52.184Z,14.84
2017-11-22T12:12:53.609Z,15.03
2017-11-22T12:13:55.543Z,15.15
2017-11-22T12:14:56.463Z,15.02
2017-11-22T12:15:57.872Z,15.26
2017-11-22T12:16:59.285Z,15.36
2017-11-22T12:18:00.709Z,15.30
2017-11-22T12:19:02.130Z,15.36
2017-11-22T12:20:03.544Z,15.54
2017-11-22T12:21:04.974Z,15.63
2017-11-22T12:22:06.382Z,15.49
2017-11-22T12:23:07.796Z,15.56
2017-11-22T12:24:09.213Z,15.57
2017-11-22T12:25:10.637Z,15.54
2017-11-22T12:26:12.046Z,15.52
2017-11-22T12:27:13.472Z,15.45
2017-11-22T12:28:14.879Z,15.54
2017-11-22T12:29:16.296Z,15.36
2017-11-22T12:30:17.710Z,15.41
2017-11-22T12:31:19.083Z,15.48
2017-11-22T12:32:20.504Z,15.56
2017-11-22T12:33:21.920Z,15.51
2017-11-22T12:34:23.340Z,15.41
2017-11-22T12:35:24.763Z,15.52
2017-11-22T12:36:26.189Z,15.54
2017-11-22T12:37:27.604Z,15.79
2017-11-22T12:38:29.021Z,15.74
2017-11-22T12:39:30.435Z,15.78
2017-11-22T12:40:31.849Z,15.66
2017-11-22T12:41:33.279Z,15.63
2017-11-22T12:42:34.699Z,15.74
2017-11-22T12:43:36.122Z,15.74
2017-11-22T12:44:37.539Z,15.72
2017-11-22T12:45:38.965Z,15.59
2017-11-22T12:46:40.380Z,15.66
2017-11-22T12:47:41.789Z,15.85
2017-11-22T12:48:43.213Z,15.78
2017-11-22T12:49:44.631Z,15.68
2017-11-22T12:50:46.053Z,15.68
2017-11-22T12:51:47.474Z,15.61
2017-11-22T12:52:48.887Z,15.72
2017-11-22T12:53:50.300Z,15.84
2017-11-22T12:54:51.725Z,15.81
2017-11-22T12:55:53.144Z,15.72
2017-11-22T12:56:54.556Z,15.63
2017-11-22T12:57:55.989Z,15.61
2017-11-22T12:58:57.397Z,15.61
2017-11-22T12:59:58.822Z,15.64
2017-11-22T13:01:00.233Z,15.74
2017-11-22T13:02:01.646Z,15.76
2017-11-22T13:03:03.080Z,15.79
2017-11-22T13:04:04.491Z,15.82
2017-11-22T13:05:05.909Z,15.74
2017-11-22T13:06:07.326Z,15.66
2017-11-22T13:07:08.735Z,15.74
2017-11-22T13:08:10.151Z,15.68
2017-11-22T13:09:11.567Z,15.68
2017-11-22T13:10:12.979Z,15.88
2017-11-22T13:11:14.401Z,16.04